Terminal Aerodrome Forecast
Issued by NWS

Current Version | Previous Version | Text Only | Print | Product List | Glossary On
Versions: 1 2 3 4 5 6 7 8 9 10 11 12 13
068
FTUS42 KTBW 301733
TAFPGD
TAF
KPGD 301733Z 3018/0118 15015G23KT P6SM SCT050 BKN250
     FM010100 12009KT P6SM FEW040 SCT250
     FM011400 18012KT P6SM SCT040 BKN250=

USA.gov is the U.S. government's official web portal to all federal, state and local government web resources and services.